sensor_id;sensor_type;location;lat;lon;timestamp;temperature;humidity
431;DHT22;202;48.764;9.172;2024-02-15T02:09:34;12.90;40.70
431;DHT22;202;48.764;9.172;2024-02-15T02:13:03;13.00;40.50
431;DHT22;202;48.764;9.172;2024-02-15T02:15:48;13.00;40.20
431;DHT22;202;48.764;9.172;2024-02-15T02:18:30;12.90;41.00
431;DHT22;202;48.764;9.172;2024-02-15T02:21:01;12.90;40.80
431;DHT22;202;48.764;9.172;2024-02-15T02:23:36;12.90;41.30
431;DHT22;202;48.764;9.172;2024-02-15T02:26:27;12.80;40.40
431;DHT22;202;48.764;9.172;2024-02-15T02:28:58;12.80;41.20
431;DHT22;202;48.764;9.172;2024-02-15T02:31:44;12.60;41.90
431;DHT22;202;48.764;9.172;2024-02-15T02:34:28;12.50;42.50
431;DHT22;202;48.764;9.172;2024-02-15T02:37:02;12.50;42.30
431;DHT22;202;48.764;9.172;2024-02-15T02:39:49;12.50;42.30
431;DHT22;202;48.764;9.172;2024-02-15T02:42:18;12.50;42.30
431;DHT22;202;48.764;9.172;2024-02-15T02:44:46;12.40;42.90
431;DHT22;202;48.764;9.172;2024-02-15T02:47:13;12.40;43.10
431;DHT22;202;48.764;9.172;2024-02-15T02:49:42;12.40;43.40
431;DHT22;202;48.764;9.172;2024-02-15T02:52:10;12.50;42.50
431;DHT22;202;48.764;9.172;2024-02-15T02:54:37;12.40;42.30
431;DHT22;202;48.764;9.172;2024-02-15T02:57:07;12.30;43.00
431;DHT22;202;48.764;9.172;2024-02-15T02:59:36;12.40;43.20
431;DHT22;202;48.764;9.172;2024-02-15T03:02:57;12.40;42.70
431;DHT22;202;48.764;9.172;2024-02-15T03:05:38;12.40;42.70
431;DHT22;202;48.764;9.172;2024-02-15T03:08:35;12.30;42.70
431;DHT22;202;48.764;9.172;2024-02-15T03:11:19;12.30;43.80
431;DHT22;202;48.764;9.172;2024-02-15T03:13:47;12.30;42.90
431;DHT22;202;48.764;9.172;2024-02-15T03:16:16;12.40;41.90
431;DHT22;202;48.764;9.172;2024-02-15T03:18:43;12.40;42.40
431;DHT22;202;48.764;9.172;2024-02-15T03:21:10;12.40;42.00
431;DHT22;202;48.764;9.172;2024-02-15T03:23:37;12.40;41.30
431;DHT22;202;48.764;9.172;2024-02-15T03:26:08;12.30;42.40
431;DHT22;202;48.764;9.172;2024-02-15T03:28:35;12.20;43.20
431;DHT22;202;48.764;9.172;2024-02-15T03:31:03;12.30;42.60
431;DHT22;202;48.764;9.172;2024-02-15T03:33:32;12.40;42.30
431;DHT22;202;48.764;9.172;2024-02-15T03:36:00;12.30;42.30
431;DHT22;202;48.764;9.172;2024-02-15T03:38:27;12.30;41.90
431;DHT22;202;48.764;9.172;2024-02-15T03:40:56;12.40;41.70
431;DHT22;202;48.764;9.172;2024-02-15T03:43:41;12.50;41.00
431;DHT22;202;48.764;9.172;2024-02-15T03:49:16;12.40;41.00
431;DHT22;202;48.764;9.172;2024-02-15T03:51:53;12.20;42.50
431;DHT22;202;48.764;9.172;2024-02-15T03:54:33;12.30;41.80
431;DHT22;202;48.764;9.172;2024-02-15T03:57:23;12.30;42.30
431;DHT22;202;48.764;9.172;2024-02-15T04:00:00;12.20;41.90
431;DHT22;202;48.764;9.172;2024-02-15T04:02:44;12.20;41.20
431;DHT22;202;48.764;9.172;2024-02-15T04:05:16;12.30;41.40
431;DHT22;202;48.764;9.172;2024-02-15T04:07:44;12.30;41.60
431;DHT22;202;48.764;9.172;2024-02-15T04:10:11;12.30;41.40
431;DHT22;202;48.764;9.172;2024-02-15T04:12:38;12.40;40.90
431;DHT22;202;48.764;9.172;2024-02-15T04:15:08;12.50;40.90
431;DHT22;202;48.764;9.172;2024-02-15T04:17:58;12.50;40.60
431;DHT22;202;48.764;9.172;2024-02-15T04:21:02;12.60;40.30
431;DHT22;202;48.764;9.172;2024-02-15T04:23:34;12.60;40.00
431;DHT22;202;48.764;9.172;2024-02-15T04:26:05;12.40;40.70
431;DHT22;202;48.764;9.172;2024-02-15T04:28:38;12.50;40.90
431;DHT22;202;48.764;9.172;2024-02-15T04:31:12;12.40;40.90
431;DHT22;202;48.764;9.172;2024-02-15T04:33:41;12.50;40.70
431;DHT22;202;48.764;9.172;2024-02-15T04:43:02;12.40;40.90
431;DHT22;202;48.764;9.172;2024-02-15T04:45:43;12.50;40.50
431;DHT22;202;48.764;9.172;2024-02-15T04:48:11;12.60;40.30
431;DHT22;202;48.764;9.172;2024-02-15T04:50:40;12.40;40.20
431;DHT22;202;48.764;9.172;2024-02-15T04:53:08;12.40;40.90
431;DHT22;202;48.764;9.172;2024-02-15T04:55:36;12.50;40.80
431;DHT22;202;48.764;9.172;2024-02-15T05:01:43;12.60;39.40
431;DHT22;202;48.764;9.172;2024-02-15T05:04:37;12.50;39.90
431;DHT22;202;48.764;9.172;2024-02-15T05:07:38;12.50;38.90
431;DHT22;202;48.764;9.172;2024-02-15T05:10:50;12.50;39.00
431;DHT22;202;48.764;9.172;2024-02-15T05:13:36;12.50;39.30
431;DHT22;202;48.764;9.172;2024-02-15T05:16:33;12.50;39.70
431;DHT22;202;48.764;9.172;2024-02-15T05:19:18;12.50;38.90
431;DHT22;202;48.764;9.172;2024-02-15T06:17:05;11.90;39.60
431;DHT22;202;48.764;9.172;2024-02-15T06:19:48;12.10;39.30
431;DHT22;202;48.764;9.172;2024-02-15T06:22:25;12.20;38.90
431;DHT22;202;48.764;9.172;2024-02-15T06:24:59;12.30;38.30
431;DHT22;202;48.764;9.172;2024-02-15T06:27:27;12.20;38.60
431;DHT22;202;48.764;9.172;2024-02-15T06:30:02;12.20;38.40
431;DHT22;202;48.764;9.172;2024-02-15T06:33:08;12.20;37.90
431;DHT22;202;48.764;9.172;2024-02-15T06:36:00;12.10;38.00
431;DHT22;202;48.764;9.172;2024-02-15T06:38:55;12.00;39.10
431;DHT22;202;48.764;9.172;2024-02-15T07:17:57;12.00;38.20
431;DHT22;202;48.764;9.172;2024-02-15T07:20:28;12.10;38.30
431;DHT22;202;48.764;9.172;2024-02-15T07:22:56;12.20;37.70
431;DHT22;202;48.764;9.172;2024-02-15T07:25:26;12.20;36.90
431;DHT22;202;48.764;9.172;2024-02-15T07:27:57;12.20;37.80
431;DHT22;202;48.764;9.172;2024-02-15T07:30:33;12.20;37.60
431;DHT22;202;48.764;9.172;2024-02-15T07:33:02;12.30;37.60
431;DHT22;202;48.764;9.172;2024-02-15T07:35:29;12.40;36.20
431;DHT22;202;48.764;9.172;2024-02-15T07:38:10;12.60;36.00
431;DHT22;202;48.764;9.172;2024-02-15T07:40:40;12.60;36.00
431;DHT22;202;48.764;9.172;2024-02-15T07:43:07;12.50;36.40
431;DHT22;202;48.764;9.172;2024-02-15T07:45:36;12.50;35.90
431;DHT22;202;48.764;9.172;2024-02-15T07:48:05;12.70;35.50
431;DHT22;202;48.764;9.172;2024-02-15T07:50:32;13.00;35.00
431;DHT22;202;48.764;9.172;2024-02-15T07:52:59;13.40;34.20
431;DHT22;202;48.764;9.172;2024-02-15T07:57:04;13.80;32.10
431;DHT22;202;48.764;9.172;2024-02-15T08:09:09;14.70;27.20
431;DHT22;202;48.764;9.172;2024-02-15T08:11:43;15.00;26.40
431;DHT22;202;48.764;9.172;2024-02-15T08:14:10;15.20;26.30
431;DHT22;202;48.764;9.172;2024-02-15T08:16:51;15.30;25.40
431;DHT22;202;48.764;9.172;2024-02-15T08:19:18;15.50;25.70
431;DHT22;202;48.764;9.172;2024-02-15T08:21:54;15.60;24.50
431;DHT22;202;48.764;9.172;2024-02-15T08:24:37;15.50;24.70
431;DHT22;202;48.764;9.172;2024-02-15T08:27:16;15.40;25.00
431;DHT22;202;48.764;9.172;2024-02-15T08:30:32;15.50;25.60
431;DHT22;202;48.764;9.172;2024-02-15T08:33:15;15.60;25.50
431;DHT22;202;48.764;9.172;2024-02-15T08:35:47;15.70;24.60
431;DHT22;202;48.764;9.172;2024-02-15T08:38:16;15.90;24.90
431;DHT22;202;48.764;9.172;2024-02-15T08:40:46;16.10;24.40
431;DHT22;202;48.764;9.172;2024-02-15T08:43:13;16.50;23.50
431;DHT22;202;48.764;9.172;2024-02-15T08:45:41;16.70;22.70
431;DHT22;202;48.764;9.172;2024-02-15T08:48:08;16.60;22.50
431;DHT22;202;48.764;9.172;2024-02-15T08:50:35;16.40;22.60
431;DHT22;202;48.764;9.172;2024-02-15T08:53:03;16.20;23.00
431;DHT22;202;48.764;9.172;2024-02-15T08:55:32;15.90;23.50
431;DHT22;202;48.764;9.172;2024-02-15T08:58:03;15.60;24.00
431;DHT22;202;48.764;9.172;2024-02-15T09:00:30;15.40;24.90
431;DHT22;202;48.764;9.172;2024-02-15T09:02:58;15.00;25.70
431;DHT22;202;48.764;9.172;2024-02-15T09:05:25;15.10;25.90
431;DHT22;202;48.764;9.172;2024-02-15T09:07:52;15.30;26.20
431;DHT22;202;48.764;9.172;2024-02-15T09:10:25;15.40;25.20
431;DHT22;202;48.764;9.172;2024-02-15T09:12:52;15.40;25.10
431;DHT22;202;48.764;9.172;2024-02-15T09:15:20;15.40;25.60
431;DHT22;202;48.764;9.172;2024-02-15T09:17:48;15.00;25.70
431;DHT22;202;48.764;9.172;2024-02-15T09:20:22;15.10;26.10
431;DHT22;202;48.764;9.172;2024-02-15T09:22:54;15.30;25.60
431;DHT22;202;48.764;9.172;2024-02-15T09:25:30;15.40;25.90
431;DHT22;202;48.764;9.172;2024-02-15T09:27:57;15.60;25.20
431;DHT22;202;48.764;9.172;2024-02-15T09:30:25;15.50;24.20
431;DHT22;202;48.764;9.172;2024-02-15T09:32:53;15.10;25.50
431;DHT22;202;48.764;9.172;2024-02-15T09:35:24;15.10;25.90
431;DHT22;202;48.764;9.172;2024-02-15T09:38:02;15.10;25.80
431;DHT22;202;48.764;9.172;2024-02-15T09:40:52;15.00;26.40
431;DHT22;202;48.764;9.172;2024-02-15T09:43:26;15.20;25.60
431;DHT22;202;48.764;9.172;2024-02-15T09:46:02;15.30;25.60
431;DHT22;202;48.764;9.172;2024-02-15T09:49:51;15.40;25.80
431;DHT22;202;48.764;9.172;2024-02-15T09:52:43;15.60;24.90
431;DHT22;202;48.764;9.172;2024-02-15T09:59:27;15.60;24.10
431;DHT22;202;48.764;9.172;2024-02-15T10:50:40;16.20;20.50
431;DHT22;202;48.764;9.172;2024-02-15T10:53:21;16.20;20.60
431;DHT22;202;48.764;9.172;2024-02-15T10:56:23;16.10;20.60
431;DHT22;202;48.764;9.172;2024-02-15T10:59:20;16.30;20.60
431;DHT22;202;48.764;9.172;2024-02-15T11:08:58;16.70;19.80
431;DHT22;202;48.764;9.172;2024-02-15T11:12:22;16.70;19.90
431;DHT22;202;48.764;9.172;2024-02-15T11:15:19;16.90;19.40
431;DHT22;202;48.764;9.172;2024-02-15T11:21:54;16.80;19.20
431;DHT22;202;48.764;9.172;2024-02-15T11:28:45;16.90;20.30
431;DHT22;202;48.764;9.172;2024-02-15T11:31:58;17.10;20.30
431;DHT22;202;48.764;9.172;2024-02-15T11:36:11;16.90;20.50
431;DHT22;202;48.764;9.172;2024-02-15T11:38:44;17.00;20.50
431;DHT22;202;48.764;9.172;2024-02-15T11:48:43;17.00;20.00
431;DHT22;202;48.764;9.172;2024-02-15T11:52:51;17.10;20.20
431;DHT22;202;48.764;9.172;2024-02-15T11:55:55;17.20;19.90
431;DHT22;202;48.764;9.172;2024-02-15T11:59:10;17.00;20.10
431;DHT22;202;48.764;9.172;2024-02-15T12:02:27;17.00;20.30
431;DHT22;202;48.764;9.172;2024-02-15T13:12:47;17.70;17.00
431;DHT22;202;48.764;9.172;2024-02-15T13:15:34;17.70;16.40
431;DHT22;202;48.764;9.172;2024-02-15T13:23:16;17.90;16.10
431;DHT22;202;48.764;9.172;2024-02-15T13:26:39;18.00;16.10
431;DHT22;202;48.764;9.172;2024-02-15T13:36:01;17.70;17.50
431;DHT22;202;48.764;9.172;2024-02-15T13:38:54;17.70;17.70
431;DHT22;202;48.764;9.172;2024-02-15T13:41:46;17.70;17.70
431;DHT22;202;48.764;9.172;2024-02-15T13:59:09;17.60;18.10
431;DHT22;202;48.764;9.172;2024-02-15T14:05:19;17.60;18.30
431;DHT22;202;48.764;9.172;2024-02-15T15:47:48;17.40;19.70
431;DHT22;202;48.764;9.172;2024-02-15T15:50:15;17.40;19.60
431;DHT22;202;48.764;9.172;2024-02-15T16:06:41;17.30;20.40
431;DHT22;202;48.764;9.172;2024-02-15T16:09:48;17.20;20.50
431;DHT22;202;48.764;9.172;2024-02-15T16:12:55;17.20;21.50
431;DHT22;202;48.764;9.172;2024-02-15T16:15:57;17.30;20.50
431;DHT22;202;48.764;9.172;2024-02-15T16:18:46;17.30;20.70
431;DHT22;202;48.764;9.172;2024-02-15T16:21:36;17.20;20.50
431;DHT22;202;48.764;9.172;2024-02-15T16:24:11;17.20;20.90
431;DHT22;202;48.764;9.172;2024-02-15T16:26:44;17.20;21.20
431;DHT22;202;48.764;9.172;2024-02-15T16:29:11;17.20;21.30
431;DHT22;202;48.764;9.172;2024-02-15T16:31:47;17.20;21.90
431;DHT22;202;48.764;9.172;2024-02-15T16:34:17;17.20;21.00
431;DHT22;202;48.764;9.172;2024-02-15T16:40:41;17.10;21.80
431;DHT22;202;48.764;9.172;2024-02-15T16:43:25;17.10;21.80
431;DHT22;202;48.764;9.172;2024-02-15T16:45:57;17.00;21.70
431;DHT22;202;48.764;9.172;2024-02-15T16:48:41;16.90;22.10
431;DHT22;202;48.764;9.172;2024-02-15T16:51:09;16.80;22.60
431;DHT22;202;48.764;9.172;2024-02-15T16:53:36;17.00;22.40
431;DHT22;202;48.764;9.172;2024-02-15T16:56:05;17.00;21.80
431;DHT22;202;48.764;9.172;2024-02-15T16:58:32;17.00;22.10
431;DHT22;202;48.764;9.172;2024-02-15T17:01:07;16.90;21.60
431;DHT22;202;48.764;9.172;2024-02-15T17:04:17;16.80;22.20
431;DHT22;202;48.764;9.172;2024-02-15T17:10:43;16.70;22.80
431;DHT22;202;48.764;9.172;2024-02-15T17:13:42;16.60;22.90
431;DHT22;202;48.764;9.172;2024-02-15T17:17:10;16.60;23.40
431;DHT22;202;48.764;9.172;2024-02-15T17:22:29;16.40;23.70
431;DHT22;202;48.764;9.172;2024-02-15T17:25:12;16.40;23.90
431;DHT22;202;48.764;9.172;2024-02-15T17:28:04;16.30;24.10
431;DHT22;202;48.764;9.172;2024-02-15T17:30:58;16.30;24.10
431;DHT22;202;48.764;9.172;2024-02-15T17:33:53;16.20;24.40
431;DHT22;202;48.764;9.172;2024-02-15T17:36:48;16.20;24.60
431;DHT22;202;48.764;9.172;2024-02-15T17:39:47;16.20;25.00
431;DHT22;202;48.764;9.172;2024-02-15T17:42:44;16.20;25.10
431;DHT22;202;48.764;9.172;2024-02-15T17:45:29;16.10;25.20
431;DHT22;202;48.764;9.172;2024-02-15T17:49:08;16.10;25.20
431;DHT22;202;48.764;9.172;2024-02-15T17:58:27;15.90;25.70
431;DHT22;202;48.764;9.172;2024-02-15T18:01:15;15.90;25.10
431;DHT22;202;48.764;9.172;2024-02-15T18:04:11;15.90;24.70
431;DHT22;202;48.764;9.172;2024-02-15T18:06:50;16.00;25.10
431;DHT22;202;48.764;9.172;2024-02-15T18:09:43;16.00;25.10
431;DHT22;202;48.764;9.172;2024-02-15T18:12:29;16.00;25.30
431;DHT22;202;48.764;9.172;2024-02-15T18:15:14;16.00;25.30
431;DHT22;202;48.764;9.172;2024-02-15T18:18:18;16.00;25.40
431;DHT22;202;48.764;9.172;2024-02-15T18:26:12;15.80;24.60
431;DHT22;202;48.764;9.172;2024-02-15T18:28:57;15.80;25.00
431;DHT22;202;48.764;9.172;2024-02-15T18:31:47;15.70;25.30
431;DHT22;202;48.764;9.172;2024-02-15T18:34:33;15.60;25.30
431;DHT22;202;48.764;9.172;2024-02-15T18:37:21;15.70;25.80
431;DHT22;202;48.764;9.172;2024-02-15T19:39:55;15.10;25.30
431;DHT22;202;48.764;9.172;2024-02-15T19:42:31;15.20;25.00
431;DHT22;202;48.764;9.172;2024-02-15T19:45:21;15.20;25.30
431;DHT22;202;48.764;9.172;2024-02-15T19:48:24;15.20;25.60
431;DHT22;202;48.764;9.172;2024-02-15T19:51:22;15.10;25.30
431;DHT22;202;48.764;9.172;2024-02-15T19:54:39;15.00;25.60
431;DHT22;202;48.764;9.172;2024-02-15T20:03:44;14.90;26.00
431;DHT22;202;48.764;9.172;2024-02-15T20:06:44;14.90;25.80
431;DHT22;202;48.764;9.172;2024-02-15T20:09:48;14.90;26.20
431;DHT22;202;48.764;9.172;2024-02-15T20:12:50;14.90;26.40
431;DHT22;202;48.764;9.172;2024-02-15T20:15:52;14.90;26.20
431;DHT22;202;48.764;9.172;2024-02-15T20:18:55;14.80;26.60
431;DHT22;202;48.764;9.172;2024-02-15T20:22:20;14.70;26.50
431;DHT22;202;48.764;9.172;2024-02-15T20:25:29;14.80;26.30
431;DHT22;202;48.764;9.172;2024-02-15T20:28:27;14.70;26.80
431;DHT22;202;48.764;9.172;2024-02-15T20:31:35;14.60;26.70
431;DHT22;202;48.764;9.172;2024-02-15T20:34:33;14.70;26.70
431;DHT22;202;48.764;9.172;2024-02-15T20:37:46;14.70;27.20
431;DHT22;202;48.764;9.172;2024-02-15T21:09:43;14.50;27.10
431;DHT22;202;48.764;9.172;2024-02-15T21:12:28;14.60;26.80
431;DHT22;202;48.764;9.172;2024-02-15T21:15:24;14.60;25.60
431;DHT22;202;48.764;9.172;2024-02-15T21:18:13;14.70;25.20
431;DHT22;202;48.764;9.172;2024-02-15T21:26:46;14.60;25.10
431;DHT22;202;48.764;9.172;2024-02-15T21:30:05;14.60;25.70
431;DHT22;202;48.764;9.172;2024-02-15T21:32:23;14.70;25.50
431;DHT22;202;48.764;9.172;2024-02-15T21:35:24;14.70;25.40
431;DHT22;202;48.764;9.172;2024-02-15T21:38:29;14.70;25.10
431;DHT22;202;48.764;9.172;2024-02-15T21:44:15;14.60;25.90
431;DHT22;202;48.764;9.172;2024-02-15T21:47:03;14.40;25.50
431;DHT22;202;48.764;9.172;2024-02-15T21:49:54;14.40;26.10
431;DHT22;202;48.764;9.172;2024-02-15T21:52:28;14.40;25.60
431;DHT22;202;48.764;9.172;2024-02-15T21:55:15;14.20;25.50
431;DHT22;202;48.764;9.172;2024-02-15T21:57:50;14.30;25.70
431;DHT22;202;48.764;9.172;2024-02-15T22:00:25;14.40;25.50
431;DHT22;202;48.764;9.172;2024-02-15T22:03:15;14.40;25.40
431;DHT22;202;48.764;9.172;2024-02-15T22:05:48;14.30;25.80
431;DHT22;202;48.764;9.172;2024-02-15T22:08:26;14.30;26.10
431;DHT22;202;48.764;9.172;2024-02-15T22:10:53;14.20;27.00
431;DHT22;202;48.764;9.172;2024-02-15T22:13:20;14.10;26.90
431;DHT22;202;48.764;9.172;2024-02-15T22:15:49;14.10;26.90
431;DHT22;202;48.764;9.172;2024-02-15T22:18:21;14.00;27.80
431;DHT22;202;48.764;9.172;2024-02-15T22:20:54;14.00;27.80
431;DHT22;202;48.764;9.172;2024-02-15T22:23:26;14.00;27.80
431;DHT22;202;48.764;9.172;2024-02-15T22:25:52;13.90;27.70
431;DHT22;202;48.764;9.172;2024-02-15T22:28:28;13.80;27.70
431;DHT22;202;48.764;9.172;2024-02-15T22:30:57;13.90;27.70
431;DHT22;202;48.764;9.172;2024-02-15T22:33:24;13.80;27.70
431;DHT22;202;48.764;9.172;2024-02-15T22:35:52;13.80;28.00
431;DHT22;202;48.764;9.172;2024-02-15T22:38:20;13.70;28.10
431;DHT22;202;48.764;9.172;2024-02-15T22:40:49;13.60;28.50
431;DHT22;202;48.764;9.172;2024-02-15T22:43:23;13.60;28.70
431;DHT22;202;48.764;9.172;2024-02-15T22:45:53;13.60;28.40
431;DHT22;202;48.764;9.172;2024-02-15T22:48:21;13.60;28.80
431;DHT22;202;48.764;9.172;2024-02-15T22:50:48;13.60;28.70
431;DHT22;202;48.764;9.172;2024-02-15T22:53:16;13.60;28.90
431;DHT22;202;48.764;9.172;2024-02-15T22:55:43;13.60;29.00
431;DHT22;202;48.764;9.172;2024-02-15T22:58:10;13.50;28.80
431;DHT22;202;48.764;9.172;2024-02-15T23:00:37;13.50;28.90
431;DHT22;202;48.764;9.172;2024-02-15T23:03:04;13.50;29.00
431;DHT22;202;48.764;9.172;2024-02-15T23:05:32;13.50;29.00
431;DHT22;202;48.764;9.172;2024-02-15T23:08:00;13.40;29.10
431;DHT22;202;48.764;9.172;2024-02-15T23:10:26;13.50;29.20
431;DHT22;202;48.764;9.172;2024-02-15T23:12:55;13.50;29.30
431;DHT22;202;48.764;9.172;2024-02-15T23:15:22;13.60;29.30
431;DHT22;202;48.764;9.172;2024-02-15T23:17:48;13.50;28.70
431;DHT22;202;48.764;9.172;2024-02-15T23:20:16;13.40;28.80
431;DHT22;202;48.764;9.172;2024-02-15T23:22:45;13.50;29.00
431;DHT22;202;48.764;9.172;2024-02-15T23:25:12;13.50;28.40
431;DHT22;202;48.764;9.172;2024-02-15T23:27:39;13.60;28.20
431;DHT22;202;48.764;9.172;2024-02-15T23:30:06;13.60;27.50
431;DHT22;202;48.764;9.172;2024-02-15T23:32:36;13.50;28.20
431;DHT22;202;48.764;9.172;2024-02-15T23:35:04;13.50;28.40
431;DHT22;202;48.764;9.172;2024-02-15T23:37:36;13.50;28.30
431;DHT22;202;48.764;9.172;2024-02-15T23:40:21;13.40;28.70
431;DHT22;202;48.764;9.172;2024-02-15T23:42:49;13.40;28.80
431;DHT22;202;48.764;9.172;2024-02-15T23:45:16;13.40;28.70
431;DHT22;202;48.764;9.172;2024-02-15T23:47:43;13.40;28.50
431;DHT22;202;48.764;9.172;2024-02-15T23:50:12;13.50;28.70
431;DHT22;202;48.764;9.172;2024-02-15T23:52:41;13.40;29.00
431;DHT22;202;48.764;9.172;2024-02-15T23:55:09;13.40;28.70
431;DHT22;202;48.764;9.172;2024-02-15T23:57:38;13.40;28.60
